sensor_id;sensor_type;location;lat;lon;timestamp;P1;durP1;ratioP1;P2;durP2;ratioP2
68126;SDS011;54931;52.098;21.006;2022-08-21T00:01:53;10.30;;;4.80;;
68126;SDS011;54931;52.098;21.006;2022-08-21T00:04:21;9.80;;;5.00;;
68126;SDS011;54931;52.098;21.006;2022-08-21T00:06:50;10.40;;;4.60;;
68126;SDS011;54931;52.098;21.006;2022-08-21T00:09:19;7.40;;;4.70;;
68126;SDS011;54931;52.098;21.006;2022-08-21T00:11:47;8.20;;;5.30;;
68126;SDS011;54931;52.098;21.006;2022-08-21T00:14:15;8.40;;;4.70;;
68126;SDS011;54931;52.098;21.006;2022-08-21T00:16:44;8.80;;;5.00;;
68126;SDS011;54931;52.098;21.006;2022-08-21T00:19:11;7.50;;;5.10;;
68126;SDS011;54931;52.098;21.006;2022-08-21T00:21:39;7.90;;;4.80;;
68126;SDS011;54931;52.098;21.006;2022-08-21T00:24:07;7.90;;;5.00;;
68126;SDS011;54931;52.098;21.006;2022-08-21T00:26:34;8.40;;;4.70;;
68126;SDS011;54931;52.098;21.006;2022-08-21T00:29:02;9.90;;;4.70;;
68126;SDS011;54931;52.098;21.006;2022-08-21T00:31:30;8.80;;;4.90;;
68126;SDS011;54931;52.098;21.006;2022-08-21T00:33:58;10.50;;;5.20;;
68126;SDS011;54931;52.098;21.006;2022-08-21T00:36:25;7.00;;;5.00;;
68126;SDS011;54931;52.098;21.006;2022-08-21T00:38:53;10.50;;;4.90;;
68126;SDS011;54931;52.098;21.006;2022-08-21T00:41:20;7.80;;;5.10;;
68126;SDS011;54931;52.098;21.006;2022-08-21T00:43:50;9.70;;;4.90;;
68126;SDS011;54931;52.098;21.006;2022-08-21T00:46:19;6.30;;;4.80;;
68126;SDS011;54931;52.098;21.006;2022-08-21T00:48:46;7.90;;;4.20;;
68126;SDS011;54931;52.098;21.006;2022-08-21T00:51:22;6.90;;;4.90;;
68126;SDS011;54931;52.098;21.006;2022-08-21T00:53:58;6.40;;;4.50;;
68126;SDS011;54931;52.098;21.006;2022-08-21T00:56:28;7.20;;;4.60;;
68126;SDS011;54931;52.098;21.006;2022-08-21T00:58:57;10.40;;;5.40;;
68126;SDS011;54931;52.098;21.006;2022-08-21T01:01:26;8.50;;;4.70;;
68126;SDS011;54931;52.098;21.006;2022-08-21T01:03:54;8.00;;;4.60;;
68126;SDS011;54931;52.098;21.006;2022-08-21T01:06:21;10.20;;;5.30;;
68126;SDS011;54931;52.098;21.006;2022-08-21T01:08:49;8.10;;;4.90;;
68126;SDS011;54931;52.098;21.006;2022-08-21T01:11:18;8.00;;;4.80;;
68126;SDS011;54931;52.098;21.006;2022-08-21T01:13:46;8.40;;;5.20;;
68126;SDS011;54931;52.098;21.006;2022-08-21T01:16:17;7.50;;;5.00;;
68126;SDS011;54931;52.098;21.006;2022-08-21T01:18:48;7.10;;;5.40;;
68126;SDS011;54931;52.098;21.006;2022-08-21T01:21:22;9.50;;;5.10;;
68126;SDS011;54931;52.098;21.006;2022-08-21T01:23:53;7.70;;;5.30;;
68126;SDS011;54931;52.098;21.006;2022-08-21T01:26:26;11.00;;;5.70;;
68126;SDS011;54931;52.098;21.006;2022-08-21T01:29:19;8.70;;;5.50;;
68126;SDS011;54931;52.098;21.006;2022-08-21T01:32:14;9.20;;;5.30;;
68126;SDS011;54931;52.098;21.006;2022-08-21T01:34:45;8.10;;;5.50;;
68126;SDS011;54931;52.098;21.006;2022-08-21T01:37:15;8.70;;;5.20;;
68126;SDS011;54931;52.098;21.006;2022-08-21T01:39:44;10.70;;;5.70;;
68126;SDS011;54931;52.098;21.006;2022-08-21T01:42:13;9.30;;;5.70;;
68126;SDS011;54931;52.098;21.006;2022-08-21T01:44:41;7.30;;;4.90;;
68126;SDS011;54931;52.098;21.006;2022-08-21T01:47:12;8.50;;;5.80;;
68126;SDS011;54931;52.098;21.006;2022-08-21T01:49:42;9.60;;;5.40;;
68126;SDS011;54931;52.098;21.006;2022-08-21T01:52:11;7.40;;;5.00;;
68126;SDS011;54931;52.098;21.006;2022-08-21T01:54:39;8.20;;;4.90;;
68126;SDS011;54931;52.098;21.006;2022-08-21T01:57:08;9.60;;;5.30;;
68126;SDS011;54931;52.098;21.006;2022-08-21T01:59:36;10.30;;;5.10;;
68126;SDS011;54931;52.098;21.006;2022-08-21T02:02:04;7.00;;;5.00;;
68126;SDS011;54931;52.098;21.006;2022-08-21T02:04:32;9.50;;;5.30;;
68126;SDS011;54931;52.098;21.006;2022-08-21T02:07:01;7.40;;;5.70;;
68126;SDS011;54931;52.098;21.006;2022-08-21T02:09:29;7.00;;;5.10;;
68126;SDS011;54931;52.098;21.006;2022-08-21T02:11:56;8.60;;;5.60;;
68126;SDS011;54931;52.098;21.006;2022-08-21T02:14:24;8.20;;;5.20;;
68126;SDS011;54931;52.098;21.006;2022-08-21T02:16:52;9.10;;;4.90;;
68126;SDS011;54931;52.098;21.006;2022-08-21T02:19:19;7.20;;;5.40;;
68126;SDS011;54931;52.098;21.006;2022-08-21T02:21:47;7.80;;;5.10;;
68126;SDS011;54931;52.098;21.006;2022-08-21T02:24:14;7.50;;;5.20;;
68126;SDS011;54931;52.098;21.006;2022-08-21T02:26:42;8.10;;;5.90;;
68126;SDS011;54931;52.098;21.006;2022-08-21T02:29:09;7.50;;;5.10;;
68126;SDS011;54931;52.098;21.006;2022-08-21T02:31:37;9.70;;;5.20;;
68126;SDS011;54931;52.098;21.006;2022-08-21T02:34:04;10.80;;;5.10;;
68126;SDS011;54931;52.098;21.006;2022-08-21T02:36:32;7.30;;;5.00;;
68126;SDS011;54931;52.098;21.006;2022-08-21T02:38:59;8.80;;;5.40;;
68126;SDS011;54931;52.098;21.006;2022-08-21T02:41:27;6.40;;;5.20;;
68126;SDS011;54931;52.098;21.006;2022-08-21T02:43:54;7.60;;;5.20;;
68126;SDS011;54931;52.098;21.006;2022-08-21T02:46:22;9.70;;;5.40;;
68126;SDS011;54931;52.098;21.006;2022-08-21T02:48:49;7.80;;;5.10;;
68126;SDS011;54931;52.098;21.006;2022-08-21T02:51:19;7.00;;;5.00;;
68126;SDS011;54931;52.098;21.006;2022-08-21T02:53:47;8.00;;;5.60;;
68126;SDS011;54931;52.098;21.006;2022-08-21T02:56:17;7.90;;;5.10;;
68126;SDS011;54931;52.098;21.006;2022-08-21T02:58:50;7.50;;;5.30;;
68126;SDS011;54931;52.098;21.006;2022-08-21T03:01:19;11.30;;;5.10;;
68126;SDS011;54931;52.098;21.006;2022-08-21T03:03:47;6.50;;;5.20;;
68126;SDS011;54931;52.098;21.006;2022-08-21T03:06:20;7.80;;;5.10;;
68126;SDS011;54931;52.098;21.006;2022-08-21T03:08:49;11.10;;;5.70;;
68126;SDS011;54931;52.098;21.006;2022-08-21T03:11:17;8.60;;;5.50;;
68126;SDS011;54931;52.098;21.006;2022-08-21T03:13:46;9.50;;;5.80;;
68126;SDS011;54931;52.098;21.006;2022-08-21T03:16:13;9.80;;;6.30;;
68126;SDS011;54931;52.098;21.006;2022-08-21T03:18:41;10.80;;;6.30;;
68126;SDS011;54931;52.098;21.006;2022-08-21T03:21:09;8.50;;;5.90;;
68126;SDS011;54931;52.098;21.006;2022-08-21T03:23:37;8.70;;;6.00;;
68126;SDS011;54931;52.098;21.006;2022-08-21T03:26:07;8.80;;;5.90;;
68126;SDS011;54931;52.098;21.006;2022-08-21T03:28:34;8.70;;;5.90;;
68126;SDS011;54931;52.098;21.006;2022-08-21T03:31:02;8.20;;;5.80;;
68126;SDS011;54931;52.098;21.006;2022-08-21T03:33:29;8.50;;;5.90;;
68126;SDS011;54931;52.098;21.006;2022-08-21T03:36:00;11.20;;;5.70;;
68126;SDS011;54931;52.098;21.006;2022-08-21T03:38:33;11.10;;;6.30;;
68126;SDS011;54931;52.098;21.006;2022-08-21T03:41:03;10.30;;;6.30;;
68126;SDS011;54931;52.098;21.006;2022-08-21T03:43:32;8.10;;;5.90;;
68126;SDS011;54931;52.098;21.006;2022-08-21T03:46:01;10.00;;;5.70;;
68126;SDS011;54931;52.098;21.006;2022-08-21T03:48:31;8.40;;;5.00;;
68126;SDS011;54931;52.098;21.006;2022-08-21T03:50:59;8.00;;;5.00;;
68126;SDS011;54931;52.098;21.006;2022-08-21T03:53:26;7.20;;;4.80;;
68126;SDS011;54931;52.098;21.006;2022-08-21T03:55:54;9.50;;;5.20;;
68126;SDS011;54931;52.098;21.006;2022-08-21T03:58:24;9.60;;;5.20;;
68126;SDS011;54931;52.098;21.006;2022-08-21T04:00:56;8.00;;;5.30;;
68126;SDS011;54931;52.098;21.006;2022-08-21T04:03:26;8.50;;;4.90;;
68126;SDS011;54931;52.098;21.006;2022-08-21T04:05:55;8.90;;;5.20;;
68126;SDS011;54931;52.098;21.006;2022-08-21T04:08:22;10.20;;;5.20;;
68126;SDS011;54931;52.098;21.006;2022-08-21T04:10:53;7.30;;;5.10;;
68126;SDS011;54931;52.098;21.006;2022-08-21T04:13:22;7.60;;;5.50;;
68126;SDS011;54931;52.098;21.006;2022-08-21T04:15:50;6.80;;;4.80;;
68126;SDS011;54931;52.098;21.006;2022-08-21T04:18:17;8.60;;;5.40;;
68126;SDS011;54931;52.098;21.006;2022-08-21T04:20:49;6.80;;;4.70;;
68126;SDS011;54931;52.098;21.006;2022-08-21T04:23:20;11.10;;;5.30;;
68126;SDS011;54931;52.098;21.006;2022-08-21T04:25:48;7.70;;;5.00;;
68126;SDS011;54931;52.098;21.006;2022-08-21T04:28:16;7.20;;;5.10;;
68126;SDS011;54931;52.098;21.006;2022-08-21T04:30:43;9.30;;;5.30;;
68126;SDS011;54931;52.098;21.006;2022-08-21T04:33:12;8.50;;;4.70;;
68126;SDS011;54931;52.098;21.006;2022-08-21T04:35:39;8.70;;;5.40;;
68126;SDS011;54931;52.098;21.006;2022-08-21T04:38:09;8.70;;;5.10;;
68126;SDS011;54931;52.098;21.006;2022-08-21T04:40:37;8.20;;;5.30;;
68126;SDS011;54931;52.098;21.006;2022-08-21T04:43:07;11.30;;;5.60;;
68126;SDS011;54931;52.098;21.006;2022-08-21T04:45:39;9.20;;;5.20;;
68126;SDS011;54931;52.098;21.006;2022-08-21T04:48:13;10.00;;;4.90;;
68126;SDS011;54931;52.098;21.006;2022-08-21T04:50:52;9.30;;;5.30;;
68126;SDS011;54931;52.098;21.006;2022-08-21T04:56:21;7.30;;;5.10;;
68126;SDS011;54931;52.098;21.006;2022-08-21T04:58:58;5.90;;;4.70;;
68126;SDS011;54931;52.098;21.006;2022-08-21T05:01:32;6.10;;;4.90;;
68126;SDS011;54931;52.098;21.006;2022-08-21T05:04:04;8.30;;;4.80;;
68126;SDS011;54931;52.098;21.006;2022-08-21T05:06:36;9.80;;;5.10;;
68126;SDS011;54931;52.098;21.006;2022-08-21T05:09:06;6.00;;;4.70;;
68126;SDS011;54931;52.098;21.006;2022-08-21T05:11:36;6.70;;;4.50;;
68126;SDS011;54931;52.098;21.006;2022-08-21T05:14:04;13.80;;;4.60;;
68126;SDS011;54931;52.098;21.006;2022-08-21T05:16:31;7.70;;;4.80;;
68126;SDS011;54931;52.098;21.006;2022-08-21T05:18:59;8.80;;;4.80;;
68126;SDS011;54931;52.098;21.006;2022-08-21T05:21:26;8.20;;;5.20;;
68126;SDS011;54931;52.098;21.006;2022-08-21T05:23:54;7.70;;;4.60;;
68126;SDS011;54931;52.098;21.006;2022-08-21T05:26:21;8.50;;;4.70;;
68126;SDS011;54931;52.098;21.006;2022-08-21T05:28:49;7.80;;;4.30;;
68126;SDS011;54931;52.098;21.006;2022-08-21T05:31:16;6.50;;;4.50;;
68126;SDS011;54931;52.098;21.006;2022-08-21T05:33:43;7.70;;;5.30;;
68126;SDS011;54931;52.098;21.006;2022-08-21T05:36:11;11.30;;;4.90;;
68126;SDS011;54931;52.098;21.006;2022-08-21T05:38:39;8.10;;;5.30;;
68126;SDS011;54931;52.098;21.006;2022-08-21T05:41:07;7.40;;;5.50;;
68126;SDS011;54931;52.098;21.006;2022-08-21T05:43:35;7.50;;;4.90;;
68126;SDS011;54931;52.098;21.006;2022-08-21T05:46:04;5.70;;;4.60;;
68126;SDS011;54931;52.098;21.006;2022-08-21T05:48:34;6.20;;;4.50;;
68126;SDS011;54931;52.098;21.006;2022-08-21T05:51:08;8.30;;;5.00;;
68126;SDS011;54931;52.098;21.006;2022-08-21T05:53:39;5.80;;;4.50;;
68126;SDS011;54931;52.098;21.006;2022-08-21T05:56:09;6.70;;;4.50;;
68126;SDS011;54931;52.098;21.006;2022-08-21T05:58:38;11.20;;;5.20;;
68126;SDS011;54931;52.098;21.006;2022-08-21T06:01:06;8.00;;;5.40;;
68126;SDS011;54931;52.098;21.006;2022-08-21T06:03:38;10.20;;;5.00;;
68126;SDS011;54931;52.098;21.006;2022-08-21T06:06:08;6.40;;;4.70;;
68126;SDS011;54931;52.098;21.006;2022-08-21T06:08:36;5.20;;;4.20;;
68126;SDS011;54931;52.098;21.006;2022-08-21T06:11:05;5.80;;;4.40;;
68126;SDS011;54931;52.098;21.006;2022-08-21T06:13:34;10.80;;;5.10;;
68126;SDS011;54931;52.098;21.006;2022-08-21T06:16:09;7.10;;;4.70;;
68126;SDS011;54931;52.098;21.006;2022-08-21T06:18:44;5.40;;;4.50;;
68126;SDS011;54931;52.098;21.006;2022-08-21T06:21:12;7.70;;;4.40;;
68126;SDS011;54931;52.098;21.006;2022-08-21T06:23:41;9.20;;;5.00;;
68126;SDS011;54931;52.098;21.006;2022-08-21T06:26:12;7.00;;;4.50;;
68126;SDS011;54931;52.098;21.006;2022-08-21T06:28:44;7.80;;;4.60;;
68126;SDS011;54931;52.098;21.006;2022-08-21T06:31:18;8.20;;;4.80;;
68126;SDS011;54931;52.098;21.006;2022-08-21T06:33:50;7.50;;;4.60;;
68126;SDS011;54931;52.098;21.006;2022-08-21T06:36:19;8.80;;;5.10;;
68126;SDS011;54931;52.098;21.006;2022-08-21T06:38:49;8.90;;;5.10;;
68126;SDS011;54931;52.098;21.006;2022-08-21T06:41:18;5.80;;;4.60;;
68126;SDS011;54931;52.098;21.006;2022-08-21T06:43:46;8.20;;;4.90;;
68126;SDS011;54931;52.098;21.006;2022-08-21T06:46:14;7.60;;;5.00;;
68126;SDS011;54931;52.098;21.006;2022-08-21T06:48:41;6.20;;;5.00;;
68126;SDS011;54931;52.098;21.006;2022-08-21T06:51:09;6.90;;;4.80;;
68126;SDS011;54931;52.098;21.006;2022-08-21T06:53:36;7.40;;;5.70;;
68126;SDS011;54931;52.098;21.006;2022-08-21T06:56:05;6.60;;;5.00;;
68126;SDS011;54931;52.098;21.006;2022-08-21T06:58:32;7.70;;;5.40;;
68126;SDS011;54931;52.098;21.006;2022-08-21T07:01:00;8.00;;;5.10;;
68126;SDS011;54931;52.098;21.006;2022-08-21T07:03:31;8.10;;;5.00;;
68126;SDS011;54931;52.098;21.006;2022-08-21T07:06:00;6.20;;;4.80;;
68126;SDS011;54931;52.098;21.006;2022-08-21T07:08:29;6.80;;;4.80;;
68126;SDS011;54931;52.098;21.006;2022-08-21T07:10:59;9.40;;;5.10;;
68126;SDS011;54931;52.098;21.006;2022-08-21T07:13:28;8.00;;;4.20;;
68126;SDS011;54931;52.098;21.006;2022-08-21T07:15:55;7.20;;;4.60;;
68126;SDS011;54931;52.098;21.006;2022-08-21T07:18:23;5.60;;;4.30;;
68126;SDS011;54931;52.098;21.006;2022-08-21T07:20:50;6.90;;;4.20;;
68126;SDS011;54931;52.098;21.006;2022-08-21T07:23:29;6.60;;;4.10;;
68126;SDS011;54931;52.098;21.006;2022-08-21T07:25:59;7.70;;;5.00;;
68126;SDS011;54931;52.098;21.006;2022-08-21T07:28:28;8.10;;;4.40;;
68126;SDS011;54931;52.098;21.006;2022-08-21T07:30:58;8.10;;;4.90;;
68126;SDS011;54931;52.098;21.006;2022-08-21T07:33:28;7.50;;;4.50;;
68126;SDS011;54931;52.098;21.006;2022-08-21T07:35:58;6.00;;;4.60;;
68126;SDS011;54931;52.098;21.006;2022-08-21T07:38:26;5.90;;;5.00;;
68126;SDS011;54931;52.098;21.006;2022-08-21T07:40:55;6.60;;;4.40;;
68126;SDS011;54931;52.098;21.006;2022-08-21T07:43:26;10.80;;;5.20;;
68126;SDS011;54931;52.098;21.006;2022-08-21T07:45:55;6.30;;;3.90;;
68126;SDS011;54931;52.098;21.006;2022-08-21T07:48:23;5.20;;;4.40;;
68126;SDS011;54931;52.098;21.006;2022-08-21T07:50:51;6.30;;;4.50;;
68126;SDS011;54931;52.098;21.006;2022-08-21T07:53:18;6.30;;;4.50;;
68126;SDS011;54931;52.098;21.006;2022-08-21T07:55:46;5.70;;;4.60;;
68126;SDS011;54931;52.098;21.006;2022-08-21T07:58:13;5.50;;;4.50;;
68126;SDS011;54931;52.098;21.006;2022-08-21T08:00:41;5.50;;;4.20;;
68126;SDS011;54931;52.098;21.006;2022-08-21T08:03:08;5.70;;;4.30;;
68126;SDS011;54931;52.098;21.006;2022-08-21T08:05:36;8.50;;;4.60;;
68126;SDS011;54931;52.098;21.006;2022-08-21T08:08:05;6.00;;;3.90;;
68126;SDS011;54931;52.098;21.006;2022-08-21T08:10:34;7.50;;;4.50;;
68126;SDS011;54931;52.098;21.006;2022-08-21T08:13:02;7.40;;;4.10;;
68126;SDS011;54931;52.098;21.006;2022-08-21T08:15:30;7.40;;;4.40;;
68126;SDS011;54931;52.098;21.006;2022-08-21T08:17:58;7.50;;;4.50;;
68126;SDS011;54931;52.098;21.006;2022-08-21T08:20:26;6.20;;;4.00;;
68126;SDS011;54931;52.098;21.006;2022-08-21T08:22:54;7.20;;;4.60;;
68126;SDS011;54931;52.098;21.006;2022-08-21T08:25:23;6.60;;;4.20;;
68126;SDS011;54931;52.098;21.006;2022-08-21T08:27:52;6.30;;;4.40;;
68126;SDS011;54931;52.098;21.006;2022-08-21T08:30:21;6.70;;;4.50;;
68126;SDS011;54931;52.098;21.006;2022-08-21T08:32:50;6.50;;;4.40;;
68126;SDS011;54931;52.098;21.006;2022-08-21T08:35:18;5.80;;;4.00;;
68126;SDS011;54931;52.098;21.006;2022-08-21T08:37:46;6.20;;;4.30;;
68126;SDS011;54931;52.098;21.006;2022-08-21T08:43:14;7.00;;;4.50;;
68126;SDS011;54931;52.098;21.006;2022-08-21T08:45:45;6.00;;;4.40;;
68126;SDS011;54931;52.098;21.006;2022-08-21T08:48:46;6.60;;;4.30;;
68126;SDS011;54931;52.098;21.006;2022-08-21T08:51:28;5.70;;;4.20;;
68126;SDS011;54931;52.098;21.006;2022-08-21T08:54:04;6.40;;;4.10;;
68126;SDS011;54931;52.098;21.006;2022-08-21T08:56:36;5.10;;;3.60;;
68126;SDS011;54931;52.098;21.006;2022-08-21T08:59:15;5.90;;;3.30;;
68126;SDS011;54931;52.098;21.006;2022-08-21T09:01:49;5.40;;;3.80;;
68126;SDS011;54931;52.098;21.006;2022-08-21T09:04:22;7.60;;;3.70;;
68126;SDS011;54931;52.098;21.006;2022-08-21T09:07:12;5.00;;;3.60;;
68126;SDS011;54931;52.098;21.006;2022-08-21T09:10:01;4.20;;;3.80;;
68126;SDS011;54931;52.098;21.006;2022-08-21T09:12:56;6.20;;;3.50;;
68126;SDS011;54931;52.098;21.006;2022-08-21T09:26:24;5.50;;;3.60;;
68126;SDS011;54931;52.098;21.006;2022-08-21T09:28:56;4.70;;;3.90;;
68126;SDS011;54931;52.098;21.006;2022-08-21T09:31:30;5.90;;;3.60;;
68126;SDS011;54931;52.098;21.006;2022-08-21T09:34:03;4.60;;;3.70;;
68126;SDS011;54931;52.098;21.006;2022-08-21T09:36:49;5.30;;;3.60;;
68126;SDS011;54931;52.098;21.006;2022-08-21T09:39:31;7.10;;;3.80;;
68126;SDS011;54931;52.098;21.006;2022-08-21T09:42:07;4.50;;;3.20;;
68126;SDS011;54931;52.098;21.006;2022-08-21T09:44:39;5.80;;;3.50;;
68126;SDS011;54931;52.098;21.006;2022-08-21T09:47:11;5.50;;;3.60;;
68126;SDS011;54931;52.098;21.006;2022-08-21T09:49:43;4.30;;;3.20;;
68126;SDS011;54931;52.098;21.006;2022-08-21T09:52:24;7.30;;;3.30;;
68126;SDS011;54931;52.098;21.006;2022-08-21T09:54:55;5.00;;;4.00;;
68126;SDS011;54931;52.098;21.006;2022-08-21T09:57:27;5.40;;;3.70;;
68126;SDS011;54931;52.098;21.006;2022-08-21T10:00:19;4.00;;;3.20;;
68126;SDS011;54931;52.098;21.006;2022-08-21T10:02:48;5.00;;;3.90;;
68126;SDS011;54931;52.098;21.006;2022-08-21T10:05:22;8.90;;;3.90;;
68126;SDS011;54931;52.098;21.006;2022-08-21T10:07:52;6.50;;;3.70;;
68126;SDS011;54931;52.098;21.006;2022-08-21T10:10:23;5.60;;;3.50;;
68126;SDS011;54931;52.098;21.006;2022-08-21T10:13:14;7.00;;;3.60;;
68126;SDS011;54931;52.098;21.006;2022-08-21T10:25:02;4.80;;;3.30;;
68126;SDS011;54931;52.098;21.006;2022-08-21T10:33:44;4.60;;;4.10;;
68126;SDS011;54931;52.098;21.006;2022-08-21T10:37:16;5.10;;;3.60;;
68126;SDS011;54931;52.098;21.006;2022-08-21T10:49:29;4.10;;;3.10;;
68126;SDS011;54931;52.098;21.006;2022-08-21T10:52:27;4.30;;;3.20;;
68126;SDS011;54931;52.098;21.006;2022-08-21T10:55:22;4.30;;;3.10;;
68126;SDS011;54931;52.098;21.006;2022-08-21T10:58:22;5.20;;;3.50;;
68126;SDS011;54931;52.098;21.006;2022-08-21T11:01:20;6.20;;;3.50;;
68126;SDS011;54931;52.098;21.006;2022-08-21T11:04:34;6.30;;;3.50;;
68126;SDS011;54931;52.098;21.006;2022-08-21T11:07:24;6.30;;;3.10;;
68126;SDS011;54931;52.098;21.006;2022-08-21T11:10:21;5.60;;;3.40;;
68126;SDS011;54931;52.098;21.006;2022-08-21T11:12:56;4.80;;;3.20;;
68126;SDS011;54931;52.098;21.006;2022-08-21T11:15:46;5.20;;;3.20;;
68126;SDS011;54931;52.098;21.006;2022-08-21T11:18:30;6.20;;;3.40;;
68126;SDS011;54931;52.098;21.006;2022-08-21T11:21:35;4.80;;;3.30;;
68126;SDS011;54931;52.098;21.006;2022-08-21T11:24:47;4.80;;;3.20;;
68126;SDS011;54931;52.098;21.006;2022-08-21T11:28:06;5.00;;;2.80;;
68126;SDS011;54931;52.098;21.006;2022-08-21T11:33:52;4.30;;;2.70;;
68126;SDS011;54931;52.098;21.006;2022-08-21T11:40:05;6.10;;;3.00;;
68126;SDS011;54931;52.098;21.006;2022-08-21T11:43:40;3.30;;;3.00;;
68126;SDS011;54931;52.098;21.006;2022-08-21T11:45:54;4.90;;;3.40;;
68126;SDS011;54931;52.098;21.006;2022-08-21T11:51:23;4.00;;;2.60;;
68126;SDS011;54931;52.098;21.006;2022-08-21T11:54:40;8.20;;;3.00;;
68126;SDS011;54931;52.098;21.006;2022-08-21T11:57:21;3.60;;;3.00;;
68126;SDS011;54931;52.098;21.006;2022-08-21T12:00:13;3.90;;;3.10;;
68126;SDS011;54931;52.098;21.006;2022-08-21T12:02:51;4.20;;;3.00;;
68126;SDS011;54931;52.098;21.006;2022-08-21T12:05:34;5.60;;;3.20;;
68126;SDS011;54931;52.098;21.006;2022-08-21T12:08:15;5.10;;;2.80;;
68126;SDS011;54931;52.098;21.006;2022-08-21T12:11:04;6.70;;;3.10;;
68126;SDS011;54931;52.098;21.006;2022-08-21T12:19:28;3.60;;;2.90;;
68126;SDS011;54931;52.098;21.006;2022-08-21T12:35:37;4.60;;;3.00;;
68126;SDS011;54931;52.098;21.006;2022-08-21T12:38:15;4.20;;;3.40;;
68126;SDS011;54931;52.098;21.006;2022-08-21T12:41:00;3.10;;;2.70;;
68126;SDS011;54931;52.098;21.006;2022-08-21T12:43:41;4.30;;;2.70;;
68126;SDS011;54931;52.098;21.006;2022-08-21T12:46:35;3.10;;;2.80;;
68126;SDS011;54931;52.098;21.006;2022-08-21T12:49:16;3.80;;;2.80;;
68126;SDS011;54931;52.098;21.006;2022-08-21T12:51:52;3.30;;;2.90;;
68126;SDS011;54931;52.098;21.006;2022-08-21T12:54:28;5.40;;;2.60;;
68126;SDS011;54931;52.098;21.006;2022-08-21T12:57:06;5.30;;;2.90;;
68126;SDS011;54931;52.098;21.006;2022-08-21T12:59:39;3.60;;;2.90;;
68126;SDS011;54931;52.098;21.006;2022-08-21T13:02:17;4.10;;;2.70;;
68126;SDS011;54931;52.098;21.006;2022-08-21T13:04:48;3.40;;;3.10;;
68126;SDS011;54931;52.098;21.006;2022-08-21T13:07:31;4.80;;;3.30;;
68126;SDS011;54931;52.098;21.006;2022-08-21T13:10:21;3.50;;;3.00;;
68126;SDS011;54931;52.098;21.006;2022-08-21T13:12:58;5.00;;;3.00;;
68126;SDS011;54931;52.098;21.006;2022-08-21T13:15:32;5.10;;;3.00;;
68126;SDS011;54931;52.098;21.006;2022-08-21T13:18:02;4.80;;;3.10;;
68126;SDS011;54931;52.098;21.006;2022-08-21T13:20:33;4.20;;;3.20;;
68126;SDS011;54931;52.098;21.006;2022-08-21T13:23:18;5.40;;;3.30;;
68126;SDS011;54931;52.098;21.006;2022-08-21T13:25:50;3.80;;;3.10;;
68126;SDS011;54931;52.098;21.006;2022-08-21T13:28:17;10.10;;;3.10;;
68126;SDS011;54931;52.098;21.006;2022-08-21T13:30:48;5.20;;;3.30;;
68126;SDS011;54931;52.098;21.006;2022-08-21T13:33:23;6.00;;;3.20;;
68126;SDS011;54931;52.098;21.006;2022-08-21T13:38:27;4.30;;;2.90;;
68126;SDS011;54931;52.098;21.006;2022-08-21T13:41:04;3.70;;;3.30;;
68126;SDS011;54931;52.098;21.006;2022-08-21T13:43:37;4.30;;;3.40;;
68126;SDS011;54931;52.098;21.006;2022-08-21T13:46:11;5.40;;;3.40;;
68126;SDS011;54931;52.098;21.006;2022-08-21T13:48:42;5.10;;;3.40;;
68126;SDS011;54931;52.098;21.006;2022-08-21T13:51:10;6.40;;;3.60;;
68126;SDS011;54931;52.098;21.006;2022-08-21T13:56:08;4.30;;;3.40;;
68126;SDS011;54931;52.098;21.006;2022-08-21T13:58:46;3.80;;;3.30;;
68126;SDS011;54931;52.098;21.006;2022-08-21T14:01:37;4.60;;;3.30;;
68126;SDS011;54931;52.098;21.006;2022-08-21T14:05:02;5.40;;;3.40;;
68126;SDS011;54931;52.098;21.006;2022-08-21T14:07:39;3.90;;;3.30;;
68126;SDS011;54931;52.098;21.006;2022-08-21T14:10:19;6.50;;;3.40;;
68126;SDS011;54931;52.098;21.006;2022-08-21T14:12:52;5.20;;;3.20;;
68126;SDS011;54931;52.098;21.006;2022-08-21T14:15:25;4.40;;;3.00;;
68126;SDS011;54931;52.098;21.006;2022-08-21T14:18:13;5.30;;;3.20;;
68126;SDS011;54931;52.098;21.006;2022-08-21T14:20:43;4.50;;;3.10;;
68126;SDS011;54931;52.098;21.006;2022-08-21T14:23:22;4.70;;;3.00;;
68126;SDS011;54931;52.098;21.006;2022-08-21T14:25:52;4.60;;;3.60;;
68126;SDS011;54931;52.098;21.006;2022-08-21T14:28:34;5.80;;;3.10;;
68126;SDS011;54931;52.098;21.006;2022-08-21T14:31:20;6.00;;;3.40;;
68126;SDS011;54931;52.098;21.006;2022-08-21T14:33:49;4.10;;;3.00;;
68126;SDS011;54931;52.098;21.006;2022-08-21T14:36:16;5.90;;;3.10;;
68126;SDS011;54931;52.098;21.006;2022-08-21T14:38:44;4.60;;;2.90;;
68126;SDS011;54931;52.098;21.006;2022-08-21T14:41:23;4.00;;;2.60;;
68126;SDS011;54931;52.098;21.006;2022-08-21T14:43:55;4.60;;;2.90;;
68126;SDS011;54931;52.098;21.006;2022-08-21T14:46:27;6.20;;;3.20;;
68126;SDS011;54931;52.098;21.006;2022-08-21T14:48:56;3.80;;;3.00;;
68126;SDS011;54931;52.098;21.006;2022-08-21T14:51:24;9.10;;;2.90;;
68126;SDS011;54931;52.098;21.006;2022-08-21T14:53:51;4.00;;;2.80;;
68126;SDS011;54931;52.098;21.006;2022-08-21T14:56:19;5.60;;;3.00;;
68126;SDS011;54931;52.098;21.006;2022-08-21T14:58:49;4.90;;;2.90;;
68126;SDS011;54931;52.098;21.006;2022-08-21T15:01:20;3.30;;;2.80;;
68126;SDS011;54931;52.098;21.006;2022-08-21T15:03:49;5.50;;;3.00;;
68126;SDS011;54931;52.098;21.006;2022-08-21T15:06:18;3.90;;;2.90;;
68126;SDS011;54931;52.098;21.006;2022-08-21T15:08:48;3.90;;;3.10;;
68126;SDS011;54931;52.098;21.006;2022-08-21T15:11:21;4.20;;;3.20;;
68126;SDS011;54931;52.098;21.006;2022-08-21T15:13:56;4.80;;;2.70;;
68126;SDS011;54931;52.098;21.006;2022-08-21T15:16:28;4.30;;;2.80;;
68126;SDS011;54931;52.098;21.006;2022-08-21T15:18:59;3.80;;;2.80;;
68126;SDS011;54931;52.098;21.006;2022-08-21T15:21:27;3.60;;;3.00;;
68126;SDS011;54931;52.098;21.006;2022-08-21T15:23:54;3.60;;;2.90;;
68126;SDS011;54931;52.098;21.006;2022-08-21T15:26:23;4.40;;;2.80;;
68126;SDS011;54931;52.098;21.006;2022-08-21T15:28:52;3.40;;;2.70;;
68126;SDS011;54931;52.098;21.006;2022-08-21T15:31:19;4.30;;;2.90;;
68126;SDS011;54931;52.098;21.006;2022-08-21T15:33:47;4.50;;;2.90;;
68126;SDS011;54931;52.098;21.006;2022-08-21T15:36:14;6.10;;;3.20;;
68126;SDS011;54931;52.098;21.006;2022-08-21T15:38:42;3.90;;;3.30;;
68126;SDS011;54931;52.098;21.006;2022-08-21T15:41:11;4.70;;;3.00;;
68126;SDS011;54931;52.098;21.006;2022-08-21T15:43:49;3.30;;;2.60;;
68126;SDS011;54931;52.098;21.006;2022-08-21T15:46:20;4.70;;;2.50;;
68126;SDS011;54931;52.098;21.006;2022-08-21T15:48:48;4.50;;;2.90;;
68126;SDS011;54931;52.098;21.006;2022-08-21T15:51:17;3.50;;;2.70;;
68126;SDS011;54931;52.098;21.006;2022-08-21T15:53:45;4.30;;;2.80;;
68126;SDS011;54931;52.098;21.006;2022-08-21T15:56:33;4.60;;;2.70;;
68126;SDS011;54931;52.098;21.006;2022-08-21T15:59:08;4.10;;;2.90;;
68126;SDS011;54931;52.098;21.006;2022-08-21T16:01:42;6.80;;;3.10;;
68126;SDS011;54931;52.098;21.006;2022-08-21T16:04:10;3.70;;;3.00;;
68126;SDS011;54931;52.098;21.006;2022-08-21T16:06:45;5.30;;;3.50;;
68126;SDS011;54931;52.098;21.006;2022-08-21T16:09:12;3.90;;;3.30;;
68126;SDS011;54931;52.098;21.006;2022-08-21T16:11:40;5.80;;;3.10;;
68126;SDS011;54931;52.098;21.006;2022-08-21T16:14:07;5.20;;;3.20;;
68126;SDS011;54931;52.098;21.006;2022-08-21T16:16:37;6.40;;;3.50;;
68126;SDS011;54931;52.098;21.006;2022-08-21T16:19:05;6.00;;;3.50;;
68126;SDS011;54931;52.098;21.006;2022-08-21T16:21:34;4.90;;;2.90;;
68126;SDS011;54931;52.098;21.006;2022-08-21T16:24:02;3.90;;;3.40;;